Portada
METAR-TAF:

METAR-TAF

Aeroports :

Municipal

Tunica, Mississipí, Estats Units d'Amèrica

latitud: 34-41-06N, longitud: 090-20-52W, altitud: 59 m

Observació

L'informe es va fer fa 29 minuts, a les 12:55 UTC
Vent 7 kt del Nord/Nord-Est
Temperatura 19°C
Humitat 83%
Pressió 1022 hPa
Visibilitat: 16.1 km
Cel clar

METAR: KUTA 301255Z AUTO 02007KT 10SM CLR 19/16 A3017 RMK AO2 TSNO

Hora: 08:24 (13:24 UTC)


TAF: manca

Observacions i pronòstics meteorològics de més de 4000 aeroports (METAR i TAF).

Les estacions disponibles són els punts grocs i vermells al mapa.

Posi el ratolí al punt desitjat per veure el nom de l'estació.

Feu clic per veure les observacions i els pronòstics meteorològics.

Per canviar el mapa: feu clic els botons verds amb una creu de color negre per apropar; al botó verd amb un guió per allunyar la imatge; o en les fletxes verdes per a mapes adjacents.


METAR-TAF: